首页
METAR-TAF:

METAR-TAF

机场 :

羅馬-菲烏米奇諾機場

罗马菲乌米奇诺, 意大利

纬度: 41-48N, 经度: 012-14E, 海拔: 2米

当前天气观测

该预报发布于36分钟前的18:20 UTC
风速10节,风向南转南东
温度 8°C
湿度 76%
气压 992 hPa
能见度10公里或以上
少量云层高于2000英尺
散云层高于4000英尺

METAR: LIRF 231820Z 16010KT 9999 FEW020 SCT040 08/04 Q0992 RETSRA NOSIG

时间: 19:56 (18:56 UTC)

预报

该预报发布于1小时和56分钟前的17:00 UTC
预报有效从23日的 18点(UTC)到 24日的 24点(UTC)
风速15节,风向东南
能見度: 7000
散云层高于4000英尺
短暂存在
从 23日的 18点(UTC)到 23日的 20点(UTC)
阵雨
成为
从 23日的 22点(UTC)到 23日的 24点(UTC)
风速16节,风向
成为
从 24日的 10点(UTC)到 24日的 12点(UTC)
风速18节,风向北转东北,有时为28节阵风

TAF: LIRF 231700Z 2318/2424 14015KT 7000 SCT040 TEMPO 2318/2320 SHRA BECMG 2322/2324 08016KT BECMG 2410/2412 02018G28KT

超过4000个机场的气象观测和天气预报(METAR&TAF报告)。

可查询的气象台以黄色和红色小点在地图上表示。

将鼠标移到小点上方,可查看气象台名称。

然后点击查看天气观测和预报。

如需切换地图:点击带黑十字的绿色按钮放大地图;点击带横线的绿色按钮缩小地图;或者点击绿色箭头查看邻近地区的地图。


METAR-TAF: